Terminal Aerodrome Forecast
Issued by NWS

Home | Current Version | Previous Version | Text Only | Print | Product List | Glossary On
Versions: 1 2 3 4 5 6 7 8 9 10 11 12 13
000
FTUS42 TJSJ 231737
TAFIST
TAF
TIST 231737Z 2318/2418 12007KT P6SM SCT020 BKN100
     FM240000 12006KT P6SM SCT020 BKN100
     FM240900 12012KT P6SM VCSH SCT020 BKN100
      AMD NOT SKED=

USA.gov is the U.S. government's official web portal to all federal, state and local government web resources and services.